< < Back
Terminal Aerodrome Forecast


Current Version              Previous Versions:   1  2  3  4  5  6  7  8  9  

Terminal Aerodrome Forecast

839
FTUS44 KMOB 021700 RRA
TAFPNS
TAF
KPNS 021741Z 0218/0318 12005KT 3SM BR OVC007
     FM022100 14005KT 5SM BR OVC011
     FM030300 08004KT 2SM BR OVC007
      TEMPO 0308/0312 1/4SM FG VV002
     FM031500 17005KT P6SM BKN011=

Latest METAR

589
SAUS70 KWBC 022000 RRM
MTRPNS
METAR KPNS 021953Z 15008KT 10SM SCT028 20/16 A3024 RMK AO2 SLP242
T02000161


USA.gov is the U.S. government's official web portal to all federal, state and local government web resources and services.